Elkmont, Alabama
Current Conditions -  °F | °C
As of 6:53 AM on Friday 24 Oct 2014 (Local Time) from KDCU Reporting Station
Clear Clear  
Wind Chill: 44°   Ceiling: Unl
Heat Index: 44°   Visibility: 9mi
Dew Point: 42°   Wind: 3mph
Humidity: 93%   Direction: 360°N
Pressure: 30.12"   Gusts: NA
Location:  34.93°N, 86.97°W
Report Text: KDCU 241153Z AUTO 36003KT 9SM CLR 07/06 A3012 RMK AO2 SLP199 T00670056 10117 20067 52009
Loading
Personal Weather Stations






























Interactive Weather Map
Tropical Storm Tracking
New forecast layout! Learn more

10-Day Weather Forecast

Advertisements
Track Severe Weather on mobile